Terminal Aerodrome Forecast
Issued by NWS

Home | Current Version | Previous Version | Text Only | Print | Product List | Glossary Off
Versions: 1 2 3 4 5 6 7 8 9 10 11 12 13 14 15 16 17 18 19

335
FTUS43 KMPX 190531
TAFAXN
TAF
KAXN 190531Z 1906/2006 34015G20KT 6SM BR OVC007
      TEMPO 1908/1910 OVC003
     FM191400 01018G26KT P6SM BKN012
     FM191800 01018G26KT P6SM SKC=

USA.gov is the U.S. government's official web portal to all federal, state and local government web resources and services.